Time;durP1;ratioP1;P1;durP2;ratioP2;P2;SDS_P1;SDS_P2;PMS_P1;PMS_P2;Temp;Humidity;BMP_temperature;BMP_pressure;BME280_temperature;BME280_humidity;BME280_pressure;Samples;Min_cycle;Max_cycle;Signal;HPM_P1;HPM_P2
2023/04/11 06:30:26;;;;;;;1.48;0.57;;;9.80;99.90;;;;;;7383234;23;20099;-82
2023/04/11 06:33:28;;;;;;;3.42;0.60;;;9.90;99.90;;;;;;6158030;29;20057;-84
2023/04/11 06:36:31;;;;;;;2.58;0.70;;;9.90;99.90;;;;;;6156378;29;20062;-82
2023/04/11 06:39:33;;;;;;;2.92;0.63;;;10.00;99.90;;;;;;6156362;29;20059;-84
2023/04/11 06:42:35;;;;;;;2.38;0.70;;;9.90;99.90;;;;;;6155341;29;20051;-85
2023/04/11 06:45:39;;;;;;;2.35;0.60;;;10.00;99.90;;;;;;6155243;29;20047;-82
2023/04/11 06:48:40;;;;;;;2.50;0.63;;;9.90;99.90;;;;;;6153513;29;20312;-82
2023/04/11 06:51:42;;;;;;;1.88;0.60;;;9.90;99.90;;;;;;6154936;29;20082;-82
2023/04/11 06:54:44;;;;;;;2.55;0.60;;;9.90;99.90;;;;;;6154728;29;20393;-82
2023/04/11 06:57:46;;;;;;;3.28;0.70;;;9.90;99.90;;;;;;6154656;29;20485;-83
2023/04/11 07:00:50;;;;;;;2.70;0.70;;;9.80;99.90;;;;;;6153224;29;20211;-82
2023/04/11 07:03:52;;;;;;;;;;;9.80;99.90;;;;;;6131921;29;20436;-82
2023/04/11 07:06:54;;;;;;;3.47;0.70;;;9.80;99.90;;;;;;6130970;29;20365;-82
2023/04/11 07:09:56;;;;;;;3.85;1.05;;;9.90;99.90;;;;;;6131451;29;20058;-82
2023/04/11 07:12:58;;;;;;;2.78;0.80;;;10.00;99.90;;;;;;6131407;29;20058;-81
2023/04/11 07:16:01;;;;;;;3.53;0.70;;;10.00;99.90;;;;;;6131204;29;20054;-82
2023/04/11 07:19:03;;;;;;;3.20;0.63;;;10.10;99.90;;;;;;6143538;29;20070;-81
2023/04/11 07:22:05;;;;;;;2.83;0.80;;;10.10;99.90;;;;;;6146407;29;20054;-80
2023/04/11 07:25:08;;;;;;;2.42;0.93;;;10.20;99.90;;;;;;6130850;29;20052;-81
2023/04/11 07:28:10;;;;;;;3.80;0.90;;;10.20;99.90;;;;;;6130299;29;20048;-80
2023/04/11 07:31:14;;;;;;;2.45;0.60;;;10.20;99.90;;;;;;6152872;29;20327;-81
2023/04/11 07:34:16;;;;;;;2.13;0.68;;;10.10;99.90;;;;;;6154392;29;20071;-80
2023/04/11 07:37:18;;;;;;;3.83;0.77;;;10.20;99.90;;;;;;6155200;29;20111;-81
2023/04/11 07:40:20;;;;;;;2.70;0.57;;;10.10;99.90;;;;;;6151328;29;20482;-81
2023/04/11 07:43:22;;;;;;;8.68;2.38;;;10.20;99.90;;;;;;6134214;29;20052;-82
2023/04/11 07:46:26;;;;;;;15.63;6.68;;;10.20;99.90;;;;;;6150127;29;20055;-80
2023/04/11 07:49:27;;;;;;;4.78;1.33;;;10.30;99.90;;;;;;6157008;29;20134;-82
2023/04/11 07:52:30;;;;;;;4.82;0.90;;;10.30;99.90;;;;;;6154253;29;20534;-82
2023/04/11 07:55:32;;;;;;;3.15;0.93;;;10.40;99.90;;;;;;6154044;29;20057;-81
2023/04/11 07:58:33;;;;;;;3.40;0.65;;;10.40;99.90;;;;;;6153565;29;20424;-81
2023/04/11 08:01:37;;;;;;;4.88;1.25;;;10.40;99.90;;;;;;6153120;29;20151;-82
2023/04/11 08:04:39;;;;;;;5.20;0.80;;;10.40;99.90;;;;;;6153649;29;20054;-82
2023/04/11 08:07:41;;;;;;;5.18;1.10;;;10.60;99.90;;;;;;6153523;29;20062;-82
2023/04/11 08:10:42;;;;;;;4.00;1.00;;;10.70;99.90;;;;;;6154107;29;20054;-81
2023/04/11 08:13:44;;;;;;;4.18;0.75;;;10.60;99.90;;;;;;6129625;29;20413;-81
2023/04/11 08:16:48;;;;;;;4.68;0.90;;;10.60;99.90;;;;;;6127936;29;20043;-81
2023/04/11 08:19:50;;;;;;;4.95;1.00;;;10.60;99.90;;;;;;6128440;29;20052;-81
2023/04/11 08:22:52;;;;;;;4.85;1.02;;;10.50;99.90;;;;;;6129906;29;20058;-81
2023/04/11 08:25:56;;;;;;;4.43;0.98;;;10.70;99.90;;;;;;6129250;29;20052;-83
2023/04/11 08:28:57;;;;;;;4.78;1.25;;;10.60;99.90;;;;;;6129288;29;20171;-83
2023/04/11 08:32:01;;;;;;;3.95;1.17;;;10.70;99.90;;;;;;6152493;29;20063;-82
2023/04/11 08:35:03;;;;;;;4.35;1.05;;;10.50;99.90;;;;;;6136800;29;20416;-81
2023/04/11 08:38:05;;;;;;;5.30;1.10;;;10.60;99.90;;;;;;6131367;29;20054;-82
2023/04/11 08:41:07;;;;;;;4.63;1.13;;;10.60;99.90;;;;;;6149734;29;20499;-83
2023/04/11 08:44:11;;;;;;;5.03;1.23;;;10.70;99.90;;;;;;6152841;29;20058;-78
2023/04/11 08:47:16;;;;;;;;;;;10.70;99.90;;;;;;6152887;29;20059;-78
2023/04/11 08:50:18;;;;;;;4.93;1.23;;;10.90;99.90;;;;;;6131488;29;19923;-81
2023/04/11 08:53:25;;;;;;;5.68;1.08;;;11.10;99.90;;;;;;6128826;29;20518;-80
2023/04/11 08:56:27;;;;;;;5.35;1.27;;;11.00;99.90;;;;;;6126569;29;20054;-79
2023/04/11 08:59:29;;;;;;;6.85;1.35;;;11.30;99.90;;;;;;6124907;29;20406;-82
2023/04/11 09:02:33;;;;;;;4.53;1.25;;;11.60;99.70;;;;;;6128106;29;20058;-85
2023/04/11 09:05:37;;;;;;;7.32;1.50;;;11.50;99.30;;;;;;6129237;29;20048;-83
2023/04/11 09:08:41;;;;;;;5.07;1.40;;;11.50;99.10;;;;;;6133976;29;20059;-86
2023/04/11 09:11:53;;;;;;;;;;;11.50;98.90;;;;;;6146824;29;20051;-83
2023/04/11 09:14:55;;;;;;;5.75;1.20;;;11.60;98.30;;;;;;6149264;29;19930;-82
2023/04/11 09:18:00;;;;;;;7.53;1.65;;;11.70;98.00;;;;;;6150024;29;20086;-83
2023/04/11 09:21:05;;;;;;;5.88;1.20;;;11.60;98.00;;;;;;6134401;29;20053;-83
2023/04/11 09:24:17;;;;;;;6.28;1.30;;;11.70;98.00;;;;;;6126930;29;20056;-84
2023/04/11 09:27:23;;;;;;;6.07;1.20;;;11.90;97.90;;;;;;6129575;29;20408;-82
2023/04/11 09:30:28;;;;;;;5.80;1.30;;;11.60;97.20;;;;;;6144217;28;20575;-82
2023/04/11 09:33:52;;;;;;;6.10;1.50;;;11.70;97.50;;;;;;6125094;29;20425;-79
2023/04/11 09:36:55;;;;;;;4.55;1.20;;;11.90;96.80;;;;;;6127303;29;20059;-80
2023/04/11 09:39:59;;;;;;;10.77;3.75;;;12.00;96.40;;;;;;6129453;29;20062;-86
2023/04/11 09:43:03;;;;;;;7.47;1.52;;;12.10;96.20;;;;;;6136099;29;20062;-86
2023/04/11 09:46:09;;;;;;;6.30;1.33;;;12.00;95.70;;;;;;6133313;29;20060;-84
2023/04/11 09:49:12;;;;;;;5.28;1.42;;;11.90;94.80;;;;;;6146278;29;20050;-82
2023/04/11 09:52:15;;;;;;;7.72;1.67;;;11.90;93.40;;;;;;6153415;29;20047;-85
2023/04/11 09:55:22;;;;;;;6.20;1.25;;;12.00;92.20;;;;;;6150653;29;20051;-84
2023/04/11 09:58:24;;;;;;;6.18;1.23;;;12.00;93.70;;;;;;6153662;29;20060;-83
2023/04/11 10:01:26;;;;;;;6.30;1.17;;;12.00;94.20;;;;;;6127276;29;20058;-84
2023/04/11 10:04:30;;;;;;;6.10;1.20;;;12.00;92.40;;;;;;6127008;29;20067;-83
2023/04/11 10:07:34;;;;;;;3.95;1.13;;;11.90;92.10;;;;;;6127694;29;20055;-85
2023/04/11 10:10:37;;;;;;;4.90;1.48;;;12.00;91.50;;;;;;6148345;29;20058;-83
2023/04/11 10:13:43;;;;;;;6.20;1.25;;;11.70;91.10;;;;;;6137851;29;20055;-84
2023/04/11 10:17:14;;;;;;;4.78;1.13;;;11.70;90.90;;;;;;6133428;29;20044;-85
2023/04/11 10:20:48;;;;;;;5.72;1.17;;;11.80;91.60;;;;;;6133996;29;20051;-83
2023/04/11 10:24:09;;;;;;;3.10;0.88;;;11.70;91.70;;;;;;6160721;29;20051;-82
2023/04/11 10:27:11;;;;;;;4.82;1.08;;;11.80;91.30;;;;;;6163332;29;20051;-85
2023/04/11 10:30:14;;;;;;;4.95;0.90;;;12.00;90.90;;;;;;6158530;29;20043;-85
2023/04/11 10:33:17;;;;;;;5.65;1.13;;;12.00;90.40;;;;;;6164513;29;20066;-85
2023/04/11 10:36:21;;;;;;;;;;;11.90;90.30;;;;;;6175691;29;20500;-84
2023/04/11 10:40:11;;;;;;;7.60;1.15;;;12.00;91.20;;;;;;6175796;29;19922;-84
2023/04/11 10:43:20;;;;;;;5.00;1.10;;;12.00;90.20;;;;;;6164113;28;20077;-84
2023/04/11 10:46:25;;;;;;;4.72;1.35;;;12.00;90.50;;;;;;6148626;29;20054;-85
2023/04/11 10:49:39;;;;;;;5.95;1.50;;;12.00;92.60;;;;;;6137135;29;20060;-83
2023/04/11 10:52:45;;;;;;;4.03;1.30;;;11.90;94.60;;;;;;6136339;29;20052;-83
2023/04/11 10:55:49;;;;;;;5.28;1.10;;;12.10;94.80;;;;;;6129042;29;20057;-84
2023/04/11 10:58:59;;;;;;;3.13;1.00;;;11.90;94.70;;;;;;6130809;29;20461;-86
2023/04/11 11:02:03;;;;;;;4.15;1.05;;;12.00;94.70;;;;;;6139263;28;20063;-84
2023/04/11 11:05:24;;;;;;;5.72;1.15;;;11.90;95.20;;;;;;6137085;29;20086;-83
2023/04/11 11:08:36;;;;;;;4.60;1.38;;;12.00;94.50;;;;;;6154035;29;20051;-84
2023/04/11 11:11:38;;;;;;;5.33;1.30;;;11.90;94.30;;;;;;6153049;29;20051;-84
2023/04/11 11:14:45;;;;;;;4.43;1.10;;;11.70;94.10;;;;;;6155452;29;20062;-85
2023/04/11 11:17:47;;;;;;;4.47;1.55;;;11.40;94.20;;;;;;6155336;29;20047;-83
2023/04/11 11:20:55;;;;;;;4.95;1.27;;;11.50;95.00;;;;;;6155753;29;20146;-85
2023/04/11 11:24:00;;;;;;;3.70;1.20;;;11.50;95.20;;;;;;6154101;29;20048;-85
2023/04/11 11:27:03;;;;;;;4.78;1.10;;;11.80;95.00;;;;;;6156672;29;20485;-85
2023/04/11 11:30:12;;;;;;;5.20;1.20;;;11.90;93.50;;;;;;6160638;28;20055;-84
2023/04/11 11:33:21;;;;;;;6.50;1.40;;;12.20;91.60;;;;;;6160436;29;20066;-85
2023/04/11 11:36:25;;;;;;;4.80;1.40;;;12.10;92.00;;;;;;6161923;29;20077;-84
2023/04/11 11:39:32;;;;;;;5.85;1.25;;;12.30;91.70;;;;;;6161091;29;20098;-84
2023/04/11 11:42:35;;;;;;;5.07;1.50;;;12.40;90.30;;;;;;6165602;29;20513;-84
2023/04/11 11:45:39;;;;;;;4.70;1.30;;;12.40;90.00;;;;;;6159845;29;20489;-84
2023/04/11 11:48:47;;;;;;;3.53;1.17;;;12.30;89.20;;;;;;6158011;29;20132;-84
2023/04/11 11:51:50;;;;;;;4.45;1.30;;;12.30;89.60;;;;;;6163186;28;20078;-84
2023/04/11 11:54:53;;;;;;;4.03;1.42;;;12.40;89.30;;;;;;6157422;29;20059;-85
2023/04/11 11:58:00;;;;;;;5.85;1.48;;;12.60;89.10;;;;;;6157160;28;20059;-86
2023/04/11 12:01:02;;;;;;;4.63;1.08;;;12.80;89.50;;;;;;6147722;29;20054;-85
2023/04/11 12:04:09;;;;;;;5.00;1.33;;;12.70;88.10;;;;;;6130814;29;20056;-83
2023/04/11 12:07:15;;;;;;;4.80;1.38;;;12.90;88.70;;;;;;6130443;29;20138;-84
2023/04/11 12:10:22;;;;;;;4.00;1.17;;;13.00;85.80;;;;;;6128423;29;20320;-85
2023/04/11 12:13:26;;;;;;;7.68;1.58;;;12.80;84.90;;;;;;6130194;29;20055;-84
2023/04/11 12:16:28;;;;;;;6.03;1.17;;;13.10;84.70;;;;;;6142921;29;20138;-84
2023/04/11 12:19:30;;;;;;;4.80;1.35;;;13.40;84.50;;;;;;6138343;29;20503;-83
2023/04/11 12:22:33;;;;;;;5.80;1.13;;;13.40;85.40;;;;;;6131822;29;20078;-85
2023/04/11 12:25:37;;;;;;;5.83;1.40;;;13.70;84.70;;;;;;6133716;29;20052;-83
2023/04/11 12:28:38;;;;;;;4.57;1.35;;;13.70;84.30;;;;;;6145455;29;20315;-85
2023/04/11 12:31:40;;;;;;;7.10;1.40;;;13.90;82.40;;;;;;6139428;29;20476;-76
2023/04/11 12:34:42;;;;;;;5.40;1.40;;;13.70;80.70;;;;;;6130280;29;20063;-78
2023/04/11 12:37:44;;;;;;;4.47;1.30;;;13.30;79.90;;;;;;6126979;29;20054;-76
2023/04/11 12:40:47;;;;;;;4.80;1.40;;;13.30;79.10;;;;;;6126277;29;20047;-77
2023/04/11 12:43:49;;;;;;;5.78;1.33;;;13.20;80.20;;;;;;6132574;29;20043;-79
2023/04/11 12:46:51;;;;;;;5.93;1.30;;;13.40;78.70;;;;;;6150043;29;20055;-77
2023/04/11 12:49:53;;;;;;;5.43;1.33;;;13.30;78.40;;;;;;6149838;29;20058;-78
2023/04/11 12:52:56;;;;;;;2.65;0.80;;;13.30;79.40;;;;;;6148042;29;20052;-77
2023/04/11 12:56:00;;;;;;;4.50;1.15;;;13.30;73.20;;;;;;6149344;29;20063;-78
2023/04/11 12:59:01;;;;;;;4.97;1.08;;;13.30;74.10;;;;;;6149366;29;20058;-77
2023/04/11 13:02:03;;;;;;;6.38;1.30;;;13.50;73.70;;;;;;6149497;29;20105;-77
2023/04/11 13:05:08;;;;;;;6.28;1.50;;;13.80;72.60;;;;;;6148168;28;20051;-77
2023/04/11 13:08:10;;;;;;;5.25;1.08;;;13.60;74.00;;;;;;6149422;28;20142;-78
2023/04/11 13:11:13;;;;;;;6.30;1.20;;;13.80;74.20;;;;;;6148070;29;20182;-78
2023/04/11 13:14:15;;;;;;;5.47;1.30;;;13.60;72.00;;;;;;6148384;29;20059;-77
2023/04/11 13:17:17;;;;;;;3.65;1.27;;;13.70;71.60;;;;;;6125851;29;20047;-77
2023/04/11 13:20:19;;;;;;;4.90;1.30;;;13.70;70.00;;;;;;6125875;29;20063;-79
2023/04/11 13:23:21;;;;;;;4.80;1.20;;;13.60;71.10;;;;;;6125534;29;20051;-78
2023/04/11 13:26:24;;;;;;;4.70;1.30;;;13.60;68.80;;;;;;6125786;29;20063;-78
2023/04/11 13:29:26;;;;;;;4.45;1.25;;;13.50;69.50;;;;;;6125694;29;20421;-79
2023/04/11 13:32:28;;;;;;;5.60;1.20;;;13.60;70.00;;;;;;6132474;29;20062;-78
2023/04/11 13:35:30;;;;;;;5.13;1.40;;;13.60;70.50;;;;;;6149183;29;20082;-77
2023/04/11 13:38:32;;;;;;;4.97;1.33;;;13.60;69.90;;;;;;6149224;29;20127;-75
2023/04/11 13:41:35;;;;;;;5.55;1.40;;;13.80;71.00;;;;;;6148026;29;20059;-75
2023/04/11 13:44:37;;;;;;;5.55;1.30;;;13.90;69.80;;;;;;6148903;29;20047;-79
2023/04/11 13:47:39;;;;;;;4.93;1.10;;;13.90;69.50;;;;;;6149265;29;20055;-79
2023/04/11 13:50:41;;;;;;;5.07;1.15;;;13.80;68.20;;;;;;6148468;29;20056;-80
2023/04/11 13:53:43;;;;;;;5.10;1.30;;;13.90;68.00;;;;;;6134924;29;20048;-79
2023/04/11 13:56:46;;;;;;;6.32;1.58;;;14.00;68.00;;;;;;6140837;29;20066;-77
2023/04/11 13:59:48;;;;;;;5.45;1.30;;;14.10;68.40;;;;;;6160425;29;20471;-79
2023/04/11 14:02:50;;;;;;;5.95;1.52;;;14.00;67.90;;;;;;6164929;29;20125;-76
2023/04/11 14:05:52;;;;;;;5.93;1.50;;;14.40;68.10;;;;;;6147255;29;20497;-76
2023/04/11 14:08:54;;;;;;;5.60;1.30;;;14.70;67.50;;;;;;6148425;29;20047;-78
2023/04/11 14:11:57;;;;;;;4.90;1.20;;;14.50;68.30;;;;;;6147154;29;20055;-79
2023/04/11 14:14:59;;;;;;;7.00;1.38;;;14.50;69.70;;;;;;6146410;29;20051;-78
2023/04/11 14:18:01;;;;;;;4.82;1.30;;;14.70;68.60;;;;;;6151379;29;20055;-78
2023/04/11 14:21:06;;;;;;;6.30;1.40;;;14.70;66.50;;;;;;6152683;29;20070;-76
2023/04/11 14:24:09;;;;;;;4.57;1.45;;;14.90;66.60;;;;;;6152988;29;20146;-76
2023/04/11 14:27:12;;;;;;;4.28;1.20;;;15.40;66.20;;;;;;6150596;29;20145;-77
2023/04/11 14:30:54;;;;;;;5.28;1.30;;;15.60;65.60;;;;;;6153819;29;20050;-78
2023/04/11 14:33:56;;;;;;;;;;;15.80;61.70;;;;;;6157962;28;20146;-77
2023/04/11 14:36:58;;;;;;;4.55;1.27;;;15.70;59.60;;;;;;6155065;29;19973;-76
2023/04/11 14:40:00;;;;;;;5.35;1.30;;;16.10;60.50;;;;;;6139317;29;20190;-77
2023/04/11 14:43:05;;;;;;;3.30;1.00;;;16.60;59.40;;;;;;6145470;29;20066;-82
2023/04/11 14:46:07;;;;;;;4.25;1.50;;;16.50;59.40;;;;;;6155530;28;20075;-82
2023/04/11 14:49:09;;;;;;;5.47;1.30;;;16.70;57.20;;;;;;6154632;29;20052;-82
2023/04/11 14:52:11;;;;;;;3.92;1.20;;;16.50;57.20;;;;;;6152885;29;20054;-82
2023/04/11 14:55:13;;;;;;;6.05;1.30;;;16.50;57.50;;;;;;6154982;29;20047;-82
2023/04/11 14:58:16;;;;;;;5.68;1.60;;;17.00;58.60;;;;;;6152225;28;20055;-83
2023/04/11 15:01:18;;;;;;;;;;;17.70;56.30;;;;;;6153141;28;20051;-83
2023/04/11 15:04:20;;;;;;;5.03;1.50;;;17.10;56.50;;;;;;6153372;29;19911;-79
2023/04/11 15:07:22;;;;;;;5.38;1.33;;;17.10;55.20;;;;;;6160985;29;20065;-81
2023/04/11 15:10:25;;;;;;;4.88;1.20;;;17.40;55.70;;;;;;6178238;28;20035;-81
2023/04/11 15:13:29;;;;;;;5.13;1.60;;;18.40;54.30;;;;;;6158241;29;20051;-79
2023/04/11 15:16:31;;;;;;;6.30;1.40;;;17.20;55.10;;;;;;6153641;29;20055;-83
2023/04/11 15:19:33;;;;;;;5.15;1.52;;;16.30;57.50;;;;;;6151208;28;20058;-82
2023/04/11 15:22:34;;;;;;;7.40;1.40;;;15.90;58.30;;;;;;6148951;29;20055;-82
2023/04/11 15:25:36;;;;;;;5.82;1.40;;;16.00;58.30;;;;;;6138255;28;20070;-80
2023/04/11 15:28:40;;;;;;;5.53;1.60;;;16.20;59.00;;;;;;6139106;28;20060;-79
2023/04/11 15:31:42;;;;;;;4.82;1.45;;;16.50;58.60;;;;;;6153796;29;20062;-79
2023/04/11 15:34:44;;;;;;;5.28;1.40;;;17.50;56.60;;;;;;6135607;29;20149;-80
2023/04/11 15:37:45;;;;;;;4.95;1.40;;;18.90;55.30;;;;;;6130396;29;20062;-82
2023/04/11 15:40:50;;;;;;;4.35;1.40;;;18.50;54.10;;;;;;6152026;29;20062;-81
2023/04/11 15:43:55;;;;;;;6.00;1.85;;;16.70;57.40;;;;;;6153627;29;20051;-79
2023/04/11 15:46:57;;;;;;;6.43;1.40;;;15.90;58.40;;;;;;6169470;28;20777;-79
2023/04/11 15:50:01;;;;;;;5.03;1.27;;;15.40;59.80;;;;;;6159846;28;20051;-80
2023/04/11 15:53:03;;;;;;;5.45;1.45;;;15.30;62.00;;;;;;6169440;29;20117;-82
2023/04/11 15:56:06;;;;;;;4.88;1.38;;;17.00;60.20;;;;;;6173161;29;20058;-82
2023/04/11 15:59:11;;;;;;;4.60;1.40;;;17.00;57.20;;;;;;6155493;29;20501;-80
2023/04/11 16:02:14;;;;;;;6.88;1.52;;;18.40;55.10;;;;;;6136764;29;20051;-82
2023/04/11 16:05:19;;;;;;;8.48;1.52;;;20.10;52.70;;;;;;6156321;29;20056;-83
2023/04/11 16:08:21;;;;;;;4.90;1.45;;;20.80;50.40;;;;;;6147927;29;20054;-80
2023/04/11 16:11:23;;;;;;;6.35;1.40;;;20.60;50.00;;;;;;6148108;29;20062;-80
2023/04/11 16:14:26;;;;;;;7.28;1.63;;;21.20;49.20;;;;;;6169568;29;20051;-79
2023/04/11 16:17:28;;;;;;;5.65;1.67;;;20.10;49.60;;;;;;6172580;29;20067;-80
2023/04/11 16:20:32;;;;;;;4.22;1.40;;;20.00;49.80;;;;;;6149443;29;20656;-80
2023/04/11 16:23:34;;;;;;;5.65;1.50;;;18.50;50.60;;;;;;6171244;29;20126;-78
2023/04/11 16:26:36;;;;;;;5.40;1.42;;;18.20;52.20;;;;;;6154730;29;20050;-79
2023/04/11 16:29:42;;;;;;;4.15;1.30;;;17.70;52.50;;;;;;6149844;29;20055;-79
2023/04/11 16:32:44;;;;;;;5.78;1.30;;;17.70;53.50;;;;;;6141075;29;20134;-78
2023/04/11 16:35:46;;;;;;;5.80;1.30;;;17.50;53.60;;;;;;6127531;29;20052;-81
2023/04/11 16:38:49;;;;;;;6.63;1.70;;;16.90;54.60;;;;;;6130013;28;20102;-79
2023/04/11 16:41:51;;;;;;;4.72;1.38;;;16.60;56.10;;;;;;6141355;29;20090;-79
2023/04/11 16:44:54;;;;;;;3.95;1.35;;;16.30;56.20;;;;;;6135771;29;20051;-81
2023/04/11 16:47:56;;;;;;;5.50;1.45;;;16.20;57.10;;;;;;6145589;28;20051;-78
2023/04/11 16:50:58;;;;;;;6.25;1.50;;;15.90;57.90;;;;;;6150220;29;20059;-80
2023/04/11 16:54:01;;;;;;;5.00;1.40;;;15.60;58.90;;;;;;6173153;29;20043;-81
2023/04/11 16:57:04;;;;;;;7.88;1.67;;;15.50;59.10;;;;;;6169770;28;20087;-77
2023/04/11 17:00:18;;;;;;;6.20;1.40;;;15.30;59.40;;;;;;6148131;28;20504;-80
2023/04/11 17:03:21;;;;;;;6.68;1.40;;;15.10;60.40;;;;;;6150790;29;20126;-80
2023/04/11 17:06:23;;;;;;;7.15;1.40;;;14.80;61.00;;;;;;6145404;29;20063;-77
2023/04/11 17:09:25;;;;;;;6.90;1.73;;;14.60;60.80;;;;;;6157157;29;20047;-79
2023/04/11 17:12:27;;;;;;;5.13;1.30;;;14.60;60.70;;;;;;6169047;28;20034;-80
2023/04/11 17:15:31;;;;;;;4.30;1.20;;;14.60;60.60;;;;;;6149106;28;20055;-78
2023/04/11 17:18:33;;;;;;;5.00;1.27;;;14.60;60.60;;;;;;6147204;28;20078;-76
2023/04/11 17:21:35;;;;;;;6.07;1.45;;;14.60;61.40;;;;;;6149464;29;20047;-78
2023/04/11 17:24:37;;;;;;;4.90;1.50;;;14.60;61.50;;;;;;6137944;28;20063;-79
2023/04/11 17:27:40;;;;;;;6.75;1.90;;;14.60;62.20;;;;;;6145219;28;20059;-78
2023/04/11 17:30:43;;;;;;;6.40;1.50;;;14.60;61.90;;;;;;6145049;28;20050;-76
2023/04/11 17:33:45;;;;;;;7.97;1.65;;;14.50;62.00;;;;;;6175057;28;20047;-78
2023/04/11 17:36:47;;;;;;;5.15;1.67;;;14.40;62.20;;;;;;6174252;28;20057;-82
2023/04/11 17:39:49;;;;;;;5.93;1.52;;;14.30;62.80;;;;;;6169469;28;20059;-78
2023/04/11 17:42:52;;;;;;;5.57;1.45;;;14.30;63.20;;;;;;6175860;28;20047;-85
2023/04/11 17:46:01;;;;;;;4.43;1.30;;;14.10;63.40;;;;;;6172488;28;20058;-87
2023/04/11 17:49:03;;;;;;;6.05;1.73;;;14.00;63.80;;;;;;6187736;28;20054;-84
2023/04/11 17:52:06;;;;;;;4.70;1.48;;;13.70;64.10;;;;;;6183205;28;20054;-83
2023/04/11 17:55:10;;;;;;;6.15;1.60;;;13.50;64.90;;;;;;6191218;28;20082;-86
2023/04/11 17:58:13;;;;;;;5.53;1.50;;;13.40;65.20;;;;;;6172299;28;20058;-84
2023/04/11 18:01:16;;;;;;;4.60;1.30;;;13.30;65.50;;;;;;6189477;28;20042;-83
2023/04/11 18:04:19;;;;;;;4.38;1.27;;;13.20;66.00;;;;;;6198400;28;20057;-83
2023/04/11 18:07:23;;;;;;;6.63;1.83;;;13.20;66.10;;;;;;6183461;28;20059;-85
2023/04/11 18:10:27;;;;;;;5.88;1.45;;;13.20;66.10;;;;;;6174500;28;20446;-80
2023/04/11 18:13:29;;;;;;;8.77;1.50;;;13.20;66.10;;;;;;6170222;28;20062;-81
2023/04/11 18:16:32;;;;;;;9.63;1.85;;;13.20;66.30;;;;;;6183446;28;20089;-78
2023/04/11 18:19:34;;;;;;;4.47;1.30;;;13.20;66.50;;;;;;6169326;28;20054;-81
2023/04/11 18:22:38;;;;;;;6.80;1.48;;;13.00;66.70;;;;;;6182201;28;20065;-79
2023/04/11 18:25:40;;;;;;;6.88;1.80;;;13.00;66.60;;;;;;6172435;28;20058;-80
2023/04/11 18:28:42;;;;;;;8.23;1.77;;;13.00;67.10;;;;;;6176673;28;20051;-79
2023/04/11 18:31:45;;;;;;;6.43;1.70;;;13.00;67.30;;;;;;6166072;28;20468;-81
2023/04/11 18:34:47;;;;;;;8.10;1.60;;;13.10;67.20;;;;;;6175261;28;20479;-76
2023/04/11 18:37:49;;;;;;;8.23;2.10;;;13.10;68.00;;;;;;6167414;28;20118;-78
2023/04/11 18:40:51;;;;;;;5.50;1.73;;;13.10;67.50;;;;;;6169130;28;20472;-80
2023/04/11 18:43:53;;;;;;;4.78;1.50;;;13.10;67.20;;;;;;6174353;28;20043;-80
2023/04/11 18:46:57;;;;;;;5.95;1.50;;;12.90;68.10;;;;;;6175474;28;20050;-81
2023/04/11 18:50:00;;;;;;;7.68;1.95;;;12.80;68.70;;;;;;6172327;28;20063;-79
2023/04/11 18:53:02;;;;;;;6.35;1.80;;;12.80;69.10;;;;;;6195492;28;20078;-80
2023/04/11 18:56:05;;;;;;;6.63;1.92;;;12.80;69.30;;;;;;6172542;28;20416;-78
2023/04/11 18:59:07;;;;;;;7.82;1.98;;;12.80;69.10;;;;;;6171219;28;20424;-80
2023/04/11 19:02:12;;;;;;;13.25;1.92;;;12.70;69.60;;;;;;6167077;28;20065;-79
2023/04/11 19:05:17;;;;;;;5.55;1.42;;;12.70;70.60;;;;;;6176277;28;20049;-80
2023/04/11 19:08:19;;;;;;;6.60;1.75;;;12.70;71.00;;;;;;6176473;28;20069;-80
2023/04/11 19:11:22;;;;;;;6.32;1.55;;;12.70;70.80;;;;;;6169425;28;21897;-79
2023/04/11 19:14:24;;;;;;;5.78;1.45;;;12.70;71.50;;;;;;6172188;28;20075;-81
2023/04/11 19:17:27;;;;;;;8.55;1.70;;;12.70;70.60;;;;;;6153445;28;20424;-81
2023/04/11 19:20:29;;;;;;;6.95;1.80;;;12.70;71.50;;;;;;6170195;28;20429;-79
2023/04/11 19:23:31;;;;;;;6.55;1.70;;;12.70;74.10;;;;;;6167263;28;20389;-79
2023/04/11 19:26:34;;;;;;;6.50;1.77;;;12.70;74.90;;;;;;6172138;28;20078;-79
2023/04/11 19:29:36;;;;;;;8.63;2.20;;;12.60;75.80;;;;;;6175686;28;20042;-84
2023/04/11 19:32:42;;;;;;;10.02;2.50;;;12.60;72.70;;;;;;6181797;28;20059;-83
2023/04/11 19:35:44;;;;;;;5.65;2.00;;;12.50;71.90;;;;;;6161296;28;20046;-84
2023/04/11 19:38:50;;;;;;;8.93;2.83;;;12.50;72.10;;;;;;6174326;28;20051;-86
2023/04/11 19:41:52;;;;;;;7.47;2.15;;;12.50;72.50;;;;;;6179837;28;20047;-81
2023/04/11 19:44:54;;;;;;;7.60;2.03;;;12.40;71.90;;;;;;6173815;28;20523;-79
2023/04/11 19:48:00;;;;;;;6.00;1.88;;;12.40;71.60;;;;;;6175709;28;20410;-80
2023/04/11 19:51:02;;;;;;;6.80;1.90;;;12.30;71.60;;;;;;6196841;28;20074;-79
2023/04/11 19:54:04;;;;;;;5.65;2.03;;;12.30;71.50;;;;;;6186850;28;20063;-80
2023/04/11 19:57:06;;;;;;;7.35;1.85;;;12.40;73.70;;;;;;6182010;28;20114;-79
2023/04/11 20:00:12;;;;;;;4.20;1.80;;;12.30;72.50;;;;;;6173494;28;20490;-83
2023/04/11 20:03:16;;;;;;;6.20;1.90;;;12.30;72.20;;;;;;6177393;28;20051;-82
2023/04/11 20:06:18;;;;;;;6.88;1.98;;;12.20;72.10;;;;;;6180426;28;20579;-82
2023/04/11 20:09:22;;;;;;;7.20;1.92;;;12.30;72.40;;;;;;6166020;28;20109;-80
2023/04/11 20:12:24;;;;;;;7.53;2.20;;;12.20;73.00;;;;;;6167340;28;20058;-80
2023/04/11 20:15:26;;;;;;;5.90;1.63;;;12.30;74.20;;;;;;6158337;28;20054;-80
2023/04/11 20:18:30;;;;;;;7.22;2.30;;;12.30;73.70;;;;;;6163605;28;20047;-79
2023/04/11 20:21:32;;;;;;;;;;;12.30;75.30;;;;;;6174061;28;20054;-78
2023/04/11 20:24:34;;;;;;;6.10;2.47;;;12.20;76.10;;;;;;6183556;28;19948;-82
2023/04/11 20:27:36;;;;;;;7.03;2.00;;;12.20;76.80;;;;;;6186560;28;20038;-81
2023/04/11 20:30:38;;;;;;;6.40;2.05;;;12.20;77.50;;;;;;6183169;28;20620;-80
2023/04/11 20:33:42;;;;;;;7.83;2.30;;;12.10;77.60;;;;;;6185850;28;20047;-81
2023/04/11 20:36:45;;;;;;;6.10;2.08;;;12.00;75.70;;;;;;6187174;28;20078;-84
2023/04/11 20:39:47;;;;;;;4.97;1.60;;;12.00;78.10;;;;;;6174800;28;20051;-80
2023/04/11 20:42:49;;;;;;;6.15;2.33;;;12.00;76.30;;;;;;6178206;28;20083;-81
2023/04/11 20:45:51;;;;;;;5.30;2.00;;;12.00;76.20;;;;;;6174658;28;20138;-81
2023/04/11 20:48:55;;;;;;;7.18;2.40;;;11.90;77.00;;;;;;6166877;28;20080;-84
2023/04/11 20:51:57;;;;;;;5.65;2.38;;;11.90;78.00;;;;;;6168538;28;20055;-83
2023/04/11 20:55:00;;;;;;;20.15;8.00;;;11.80;76.30;;;;;;6154373;28;20412;-79
2023/04/11 20:58:02;;;;;;;10.73;4.03;;;11.80;77.30;;;;;;6151082;28;20191;-81
2023/04/11 21:01:04;;;;;;;6.97;2.58;;;11.80;76.20;;;;;;6155108;28;20069;-80
2023/04/11 21:04:10;;;;;;;5.40;2.13;;;11.80;77.70;;;;;;6158625;29;20058;-79
2023/04/11 21:07:12;;;;;;;7.05;2.03;;;11.80;77.60;;;;;;6156046;29;20410;-80
2023/04/11 21:10:14;;;;;;;6.80;2.22;;;11.60;78.00;;;;;;6162010;28;20054;-82
2023/04/11 21:13:16;;;;;;;7.60;2.38;;;11.50;77.60;;;;;;6172083;28;20090;-79
2023/04/11 21:16:18;;;;;;;6.97;2.35;;;11.60;79.40;;;;;;6159362;28;20051;-81
2023/04/11 21:19:21;;;;;;;5.15;1.73;;;11.40;82.50;;;;;;6163014;28;20062;-79
2023/04/11 21:22:23;;;;;;;6.00;1.88;;;11.30;84.10;;;;;;6171891;28;20070;-81
2023/04/11 21:25:25;;;;;;;5.97;1.70;;;11.30;86.40;;;;;;6167318;28;20047;-80
2023/04/11 21:28:30;;;;;;;5.28;1.80;;;11.30;86.50;;;;;;6150081;28;20043;-81
2023/04/11 21:31:32;;;;;;;7.05;2.25;;;11.20;85.30;;;;;;6171419;28;20058;-80
2023/04/11 21:34:35;;;;;;;5.65;2.30;;;11.30;84.50;;;;;;6176510;28;20061;-81
2023/04/11 21:37:37;;;;;;;7.65;2.00;;;11.30;84.90;;;;;;6163605;28;20477;-81
2023/04/11 21:40:39;;;;;;;8.52;2.10;;;11.30;85.60;;;;;;6167485;28;20050;-81
2023/04/11 21:43:41;;;;;;;7.03;2.10;;;11.30;86.10;;;;;;6174762;28;20050;-81
2023/04/11 21:46:43;;;;;;;7.15;2.45;;;11.20;85.20;;;;;;6175619;28;20427;-81
2023/04/11 21:49:47;;;;;;;8.05;2.40;;;11.20;84.90;;;;;;6173815;28;20477;-80
2023/04/11 21:52:49;;;;;;;6.53;2.80;;;11.20;86.90;;;;;;6175993;28;20174;-81
2023/04/11 21:55:51;;;;;;;4.93;2.13;;;11.20;86.90;;;;;;6175868;28;20046;-80
2023/04/11 21:58:53;;;;;;;5.25;1.92;;;11.30;85.30;;;;;;6174447;28;20050;-84
